Time;durP1;ratioP1;P1;durP2;ratioP2;P2;SDS_P1;SDS_P2;PMS_P1;PMS_P2;Temp;Humidity;BMP_temperature;BMP_pressure;BME280_temperature;BME280_humidity;BME280_pressure;Samples;Min_cycle;Max_cycle;Signal;HPM_P1;HPM_P2
2022/04/11 00:00:08;;;;;;;9.98;8.73;;;5.20;99.90;;;;;;5074222;28;20199;-67
2022/04/11 00:02:35;;;;;;;10.43;8.82;;;5.20;99.90;;;;;;5073994;28;20744;-67
2022/04/11 00:05:02;;;;;;;11.65;8.90;;;5.30;99.90;;;;;;5074015;28;20203;-67
2022/04/11 00:07:29;;;;;;;11.77;9.77;;;5.30;99.90;;;;;;5074083;28;20238;-68
2022/04/11 00:09:56;;;;;;;12.93;10.73;;;5.10;99.90;;;;;;5074047;28;20206;-68
2022/04/11 00:12:24;;;;;;;11.50;8.73;;;5.20;99.90;;;;;;5074386;28;20325;-68
2022/04/11 00:14:51;;;;;;;10.95;9.55;;;5.20;99.90;;;;;;5073651;28;20576;-67
2022/04/11 00:17:18;;;;;;;10.77;9.35;;;5.20;99.90;;;;;;5074020;28;20202;-67
2022/04/11 00:19:45;;;;;;;10.68;8.82;;;5.20;99.90;;;;;;5073986;28;20203;-68
2022/04/11 00:22:12;;;;;;;10.25;9.18;;;5.20;99.90;;;;;;5073943;28;20222;-67
2022/04/11 00:24:38;;;;;;;10.57;9.55;;;5.20;99.90;;;;;;5073825;28;20237;-67
2022/04/11 00:27:06;;;;;;;9.90;8.90;;;5.20;99.90;;;;;;5074340;28;20253;-67
2022/04/11 00:29:34;;;;;;;9.68;8.63;;;5.20;99.90;;;;;;5072844;28;20276;-67
2022/04/11 00:32:01;;;;;;;11.32;9.25;;;5.10;99.90;;;;;;5073731;28;20595;-67
2022/04/11 00:34:28;;;;;;;11.20;9.63;;;4.90;99.90;;;;;;5073636;28;20209;-68
2022/04/11 00:36:54;;;;;;;11.13;9.18;;;4.90;99.90;;;;;;5073751;28;20226;-67
2022/04/11 00:39:21;;;;;;;10.95;9.75;;;4.90;99.90;;;;;;5073536;28;20199;-68
2022/04/11 00:41:48;;;;;;;13.00;10.10;;;4.90;99.90;;;;;;5073724;28;20219;-67
2022/04/11 00:44:15;;;;;;;11.55;9.95;;;4.90;99.90;;;;;;5073525;28;20574;-68
2022/04/11 00:46:43;;;;;;;12.55;10.07;;;4.80;99.90;;;;;;5073364;28;20207;-68
2022/04/11 00:49:10;;;;;;;10.88;9.70;;;4.70;99.90;;;;;;5073457;28;20209;-67
2022/04/11 00:51:38;;;;;;;12.50;9.75;;;4.70;99.90;;;;;;5073425;28;20223;-68
2022/04/11 00:54:05;;;;;;;11.98;10.02;;;4.70;99.90;;;;;;5073171;28;20213;-67
2022/04/11 00:56:35;;;;;;;11.88;10.00;;;4.70;99.90;;;;;;5073457;28;20286;-68
2022/04/11 00:59:03;;;;;;;10.95;9.68;;;4.80;99.90;;;;;;5073577;28;20207;-67
2022/04/11 01:01:30;;;;;;;10.85;9.30;;;4.80;99.90;;;;;;5073673;28;20306;-67
2022/04/11 01:03:59;;;;;;;11.45;10.20;;;4.80;99.90;;;;;;5073202;28;20203;-67
2022/04/11 01:06:26;;;;;;;11.10;10.00;;;4.80;99.90;;;;;;5073361;28;20203;-67
2022/04/11 01:08:54;;;;;;;12.23;10.27;;;4.70;99.90;;;;;;5073353;28;20202;-67
2022/04/11 01:11:21;;;;;;;13.00;10.00;;;4.60;99.90;;;;;;5073119;28;20233;-67
2022/04/11 01:13:48;;;;;;;12.07;9.82;;;4.60;99.90;;;;;;5073223;28;20210;-67
2022/04/11 01:16:15;;;;;;;13.07;10.38;;;4.70;99.90;;;;;;5073197;28;20207;-68
2022/04/11 01:18:41;;;;;;;10.93;9.82;;;4.70;99.90;;;;;;5073368;28;20316;-68
2022/04/11 01:21:10;;;;;;;12.40;11.10;;;4.70;99.90;;;;;;5072997;28;20712;-67
2022/04/11 01:23:38;;;;;;;15.48;10.95;;;4.50;99.90;;;;;;5073123;28;20253;-68
2022/04/11 01:26:07;;;;;;;11.63;10.02;;;4.50;99.90;;;;;;5073305;28;20209;-67
2022/04/11 01:28:38;;;;;;;13.00;9.68;;;4.50;99.90;;;;;;5073274;28;20207;-67
2022/04/11 01:31:04;;;;;;;11.38;10.18;;;4.50;99.90;;;;;;5073114;28;20241;-67
2022/04/11 01:33:31;;;;;;;10.63;9.30;;;4.40;99.90;;;;;;5072799;28;20209;-67
2022/04/11 01:35:58;;;;;;;11.30;10.00;;;4.50;99.90;;;;;;5073085;28;20202;-67
2022/04/11 01:38:25;;;;;;;12.38;10.05;;;4.50;99.90;;;;;;5073113;28;20199;-67
2022/04/11 01:40:54;;;;;;;12.52;10.30;;;4.60;99.90;;;;;;5073445;28;20226;-67
2022/04/11 01:43:22;;;;;;;10.77;9.07;;;4.60;99.90;;;;;;5076786;28;20203;-67
2022/04/11 01:45:49;;;;;;;11.38;9.93;;;4.60;99.90;;;;;;5076752;28;20211;-67
2022/04/11 01:48:16;;;;;;;11.23;9.88;;;4.70;99.90;;;;;;5076744;28;20209;-67
2022/04/11 01:50:43;;;;;;;12.30;9.93;;;4.70;99.90;;;;;;5076512;28;20218;-67
2022/04/11 01:53:11;;;;;;;10.45;9.40;;;4.70;99.90;;;;;;5076364;28;20681;-68
2022/04/11 01:55:39;;;;;;;12.38;10.30;;;4.70;99.90;;;;;;5076543;28;20664;-67
2022/04/11 01:58:09;;;;;;;11.10;10.00;;;4.70;99.90;;;;;;5076509;28;20675;-67
2022/04/11 02:00:36;;;;;;;10.98;9.98;;;4.80;99.90;;;;;;5076540;28;20223;-67
2022/04/11 02:03:04;;;;;;;10.57;9.50;;;4.80;99.90;;;;;;5076371;28;20195;-68
2022/04/11 02:05:31;;;;;;;14.30;10.00;;;4.80;99.90;;;;;;5076257;28;20728;-67
2022/04/11 02:08:03;;;;;;;12.60;10.02;;;4.80;99.90;;;;;;5076495;28;20716;-67
2022/04/11 02:10:30;;;;;;;13.90;10.93;;;4.70;99.90;;;;;;5076496;28;20265;-67
2022/04/11 02:12:58;;;;;;;10.60;9.60;;;4.70;99.90;;;;;;5076323;28;20231;-68
2022/04/11 02:15:26;;;;;;;13.52;10.65;;;4.70;99.90;;;;;;5076346;28;20756;-67
2022/04/11 02:17:53;;;;;;;12.05;10.70;;;4.70;99.90;;;;;;5076183;28;20656;-67
2022/04/11 02:20:20;;;;;;;12.40;10.20;;;4.60;99.90;;;;;;5076176;28;20587;-67
2022/04/11 02:22:48;;;;;;;12.48;10.88;;;4.70;99.90;;;;;;5076268;28;20290;-67
2022/04/11 02:25:15;;;;;;;12.40;10.30;;;4.60;99.90;;;;;;5075856;28;20206;-67
2022/04/11 02:27:42;;;;;;;12.30;10.35;;;4.80;99.90;;;;;;5076124;28;20202;-67
2022/04/11 02:30:11;;;;;;;12.70;11.05;;;4.60;99.90;;;;;;5075848;28;20222;-67
2022/04/11 02:32:39;;;;;;;13.55;10.52;;;4.50;99.90;;;;;;5075932;28;20226;-67
2022/04/11 02:35:07;;;;;;;11.52;10.32;;;4.50;99.90;;;;;;5075946;28;20205;-67
2022/04/11 02:37:34;;;;;;;12.32;11.02;;;4.50;99.90;;;;;;5075992;28;20249;-67
2022/04/11 02:40:01;;;;;;;12.50;11.20;;;4.50;99.90;;;;;;5075826;28;20213;-67
2022/04/11 02:42:28;;;;;;;12.88;10.52;;;4.50;99.90;;;;;;5075913;28;20225;-68
2022/04/11 02:44:56;;;;;;;14.38;10.70;;;4.40;99.90;;;;;;5075373;28;20209;-67
2022/04/11 02:47:23;;;;;;;12.88;10.65;;;4.50;99.90;;;;;;5075784;28;20293;-67
2022/04/11 02:49:51;;;;;;;12.85;10.60;;;4.60;99.90;;;;;;5075549;28;20199;-67
2022/04/11 02:52:19;;;;;;;11.90;10.20;;;4.70;99.90;;;;;;5075072;28;20235;-67
2022/04/11 02:54:46;;;;;;;11.63;10.35;;;4.80;99.90;;;;;;5075288;28;20309;-67
2022/04/11 02:57:13;;;;;;;13.40;10.73;;;4.80;99.90;;;;;;5075774;28;20628;-67
2022/04/11 02:59:40;;;;;;;13.73;11.25;;;4.80;99.90;;;;;;5075488;28;20295;-67
2022/04/11 03:02:06;;;;;;;14.52;11.25;;;4.70;99.90;;;;;;5075470;28;20336;-67
2022/04/11 03:04:33;;;;;;;15.18;11.93;;;4.70;99.90;;;;;;5075461;28;20209;-67
2022/04/11 03:07:01;;;;;;;13.70;10.55;;;4.80;99.90;;;;;;5075220;28;20215;-68
2022/04/11 03:09:28;;;;;;;14.55;12.10;;;4.70;99.90;;;;;;5075537;28;20293;-67
2022/04/11 03:11:56;;;;;;;14.30;11.75;;;4.70;99.90;;;;;;5075363;28;20226;-67
2022/04/11 03:14:22;;;;;;;14.85;11.90;;;4.70;99.90;;;;;;5075050;28;20199;-68
2022/04/11 03:16:49;;;;;;;14.07;12.55;;;4.80;99.90;;;;;;5075222;28;20214;-67
2022/04/11 03:19:16;;;;;;;14.55;12.95;;;4.60;99.90;;;;;;5075155;28;20209;-67
2022/04/11 03:21:43;;;;;;;13.75;11.70;;;4.70;99.90;;;;;;5075239;28;20219;-67
2022/04/11 03:24:11;;;;;;;13.10;11.70;;;4.70;99.90;;;;;;5074769;28;20571;-67
2022/04/11 03:26:38;;;;;;;15.90;12.07;;;4.80;99.90;;;;;;5075193;28;20203;-67
2022/04/11 03:29:05;;;;;;;14.20;11.77;;;4.90;99.90;;;;;;5074763;28;20309;-68
2022/04/11 03:31:32;;;;;;;12.93;11.10;;;4.90;99.90;;;;;;5075187;28;20245;-67
2022/04/11 03:33:59;;;;;;;13.57;10.48;;;4.80;99.90;;;;;;5074669;28;20298;-67
2022/04/11 03:36:26;;;;;;;14.82;10.95;;;4.90;99.90;;;;;;5074693;28;20203;-67
2022/04/11 03:38:53;;;;;;;13.98;12.50;;;4.90;99.90;;;;;;5074722;28;20546;-67
2022/04/11 03:41:21;;;;;;;12.50;11.15;;;4.90;99.90;;;;;;5074671;28;20253;-67
2022/04/11 03:43:48;;;;;;;15.07;12.60;;;4.90;99.90;;;;;;5074445;28;20198;-67
2022/04/11 03:46:15;;;;;;;14.07;12.40;;;4.90;99.90;;;;;;5074440;28;20665;-67
2022/04/11 03:48:41;;;;;;;15.25;12.25;;;4.90;99.90;;;;;;5074544;28;20209;-67
2022/04/11 03:51:08;;;;;;;14.65;12.50;;;4.80;99.90;;;;;;5074448;28;20223;-67
2022/04/11 03:53:35;;;;;;;13.43;11.35;;;4.90;99.90;;;;;;5074211;28;20226;-67
2022/04/11 03:56:02;;;;;;;15.68;12.35;;;4.90;99.90;;;;;;5074144;28;20699;-67
2022/04/11 03:58:31;;;;;;;14.45;12.93;;;4.70;99.90;;;;;;5074333;28;20266;-67
2022/04/11 04:00:58;;;;;;;15.52;12.68;;;4.50;99.90;;;;;;5073987;28;20774;-67
2022/04/11 04:03:26;;;;;;;15.73;13.02;;;4.30;99.90;;;;;;5074144;28;20256;-67
2022/04/11 04:05:53;;;;;;;14.07;12.57;;;4.20;99.90;;;;;;5074216;28;20306;-67
2022/04/11 04:08:20;;;;;;;15.57;12.60;;;4.20;99.90;;;;;;5074090;28;20233;-67
2022/04/11 04:10:47;;;;;;;17.38;12.95;;;4.30;99.90;;;;;;5074148;28;20223;-67
2022/04/11 04:13:13;;;;;;;13.35;11.95;;;4.40;99.90;;;;;;5073838;28;20233;-66
2022/04/11 04:15:42;;;;;;;12.88;11.57;;;4.40;99.90;;;;;;5074079;28;20207;-67
2022/04/11 04:18:10;;;;;;;13.70;12.30;;;4.40;99.90;;;;;;5074056;28;20546;-67
2022/04/11 04:20:37;;;;;;;12.85;11.50;;;4.40;99.90;;;;;;5073870;28;20660;-67
2022/04/11 04:23:04;;;;;;;15.45;11.57;;;4.50;99.90;;;;;;5073819;28;20598;-67
2022/04/11 04:25:31;;;;;;;15.82;13.05;;;4.40;99.90;;;;;;5074032;28;20209;-67
2022/04/11 04:27:57;;;;;;;15.73;11.95;;;4.30;99.90;;;;;;5073799;28;20206;-67
2022/04/11 04:30:24;;;;;;;18.10;12.25;;;4.20;99.90;;;;;;5073917;28;20235;-67
2022/04/11 04:32:53;;;;;;;13.25;11.25;;;4.30;99.90;;;;;;5073795;28;20227;-67
2022/04/11 04:35:20;;;;;;;16.33;12.65;;;4.30;99.90;;;;;;5073565;28;20738;-67
2022/04/11 04:37:47;;;;;;;12.20;10.77;;;4.40;99.90;;;;;;5073776;28;20206;-67
2022/04/11 04:40:14;;;;;;;12.68;11.40;;;4.40;99.90;;;;;;5073644;28;20231;-67
2022/04/11 04:42:41;;;;;;;14.13;12.15;;;4.50;99.90;;;;;;5073768;28;20226;-67
2022/04/11 04:45:09;;;;;;;13.65;12.07;;;4.40;99.90;;;;;;5073566;28;20205;-67
2022/04/11 04:47:35;;;;;;;15.88;12.63;;;4.40;99.90;;;;;;5073604;28;20679;-67
2022/04/11 04:50:04;;;;;;;14.05;12.55;;;4.40;99.90;;;;;;5073304;28;20641;-67
2022/04/11 04:52:31;;;;;;;14.15;11.80;;;4.40;99.90;;;;;;5073285;28;20689;-67
2022/04/11 04:54:58;;;;;;;13.18;11.05;;;4.40;99.90;;;;;;5073348;28;20694;-67
2022/04/11 04:57:25;;;;;;;13.82;12.32;;;4.50;99.90;;;;;;5073600;28;20294;-67
2022/04/11 04:59:52;;;;;;;15.55;12.98;;;4.50;99.90;;;;;;5073500;28;20209;-67
2022/04/11 05:02:19;;;;;;;14.70;13.10;;;4.40;99.90;;;;;;5073517;28;20256;-67
2022/04/11 05:04:46;;;;;;;16.90;13.07;;;4.30;99.90;;;;;;5073330;28;20203;-67
2022/04/11 05:07:14;;;;;;;19.42;14.38;;;4.40;99.90;;;;;;5073782;28;20206;-67
2022/04/11 05:09:41;;;;;;;19.40;13.68;;;4.40;99.90;;;;;;5073857;28;20297;-67
2022/04/11 05:12:08;;;;;;;18.40;13.98;;;4.40;99.90;;;;;;5073099;28;20227;-67
2022/04/11 05:14:35;;;;;;;19.75;13.50;;;4.40;99.90;;;;;;5073077;28;20198;-67
2022/04/11 05:17:02;;;;;;;17.33;13.57;;;4.40;99.90;;;;;;5075778;28;20576;-67
2022/04/11 05:19:29;;;;;;;17.48;13.60;;;4.40;99.90;;;;;;5077203;28;20238;-67
2022/04/11 05:21:56;;;;;;;15.40;13.70;;;4.40;99.90;;;;;;5077169;28;20313;-67
2022/04/11 05:24:24;;;;;;;18.90;14.18;;;4.30;99.90;;;;;;5077180;28;20203;-67
2022/04/11 05:26:51;;;;;;;19.77;13.10;;;4.50;99.90;;;;;;5077294;28;20603;-67
2022/04/11 05:29:17;;;;;;;17.30;14.43;;;4.50;99.90;;;;;;5076887;28;20253;-67
2022/04/11 05:31:44;;;;;;;21.33;15.18;;;4.50;99.90;;;;;;5077172;28;20639;-67
2022/04/11 05:34:11;;;;;;;17.70;14.23;;;4.40;99.90;;;;;;5076963;28;20658;-67
2022/04/11 05:36:38;;;;;;;17.15;14.25;;;4.40;99.90;;;;;;5077144;28;20309;-67
2022/04/11 05:39:05;;;;;;;17.73;15.18;;;4.50;99.90;;;;;;5076945;28;20206;-67
2022/04/11 05:41:33;;;;;;;20.50;15.25;;;4.50;99.90;;;;;;5076966;28;20589;-67
2022/04/11 05:44:00;;;;;;;18.23;15.52;;;4.50;99.90;;;;;;5076460;28;20290;-67
2022/04/11 05:46:26;;;;;;;18.63;15.23;;;4.30;99.90;;;;;;5076894;28;20199;-67
2022/04/11 05:48:53;;;;;;;18.05;15.50;;;4.40;99.90;;;;;;5076818;28;20199;-67
2022/04/11 05:51:20;;;;;;;22.65;16.27;;;4.40;99.90;;;;;;5076810;28;20223;-67
2022/04/11 05:53:47;;;;;;;23.17;16.23;;;4.20;99.90;;;;;;5076306;28;20752;-67
2022/04/11 05:56:13;;;;;;;22.13;16.40;;;4.10;99.90;;;;;;5076724;28;20294;-67
2022/04/11 05:58:42;;;;;;;22.17;18.80;;;4.00;99.90;;;;;;5076554;28;20293;-68
2022/04/11 06:01:08;;;;;;;22.40;18.25;;;4.10;99.90;;;;;;5076620;28;20245;-67
2022/04/11 06:03:38;;;;;;;20.38;16.15;;;4.00;99.90;;;;;;5076373;28;20195;-67
2022/04/11 06:06:05;;;;;;;22.52;17.55;;;3.90;99.90;;;;;;5076467;28;20203;-67
2022/04/11 06:08:32;;;;;;;21.30;17.05;;;4.10;99.90;;;;;;5076499;28;20199;-67
2022/04/11 06:10:59;;;;;;;20.63;16.42;;;4.30;99.90;;;;;;5076196;28;20219;-67
2022/04/11 06:13:26;;;;;;;18.25;15.57;;;4.30;99.90;;;;;;5076613;28;20219;-67
2022/04/11 06:15:55;;;;;;;18.75;16.05;;;4.40;99.90;;;;;;5076390;28;20635;-67
2022/04/11 06:18:22;;;;;;;20.67;15.57;;;4.50;99.90;;;;;;5076345;28;20252;-68
2022/04/11 06:20:49;;;;;;;17.70;14.98;;;4.60;99.90;;;;;;5075965;28;20789;-67
2022/04/11 06:23:16;;;;;;;19.45;15.77;;;4.60;99.90;;;;;;5076098;28;20195;-67
2022/04/11 06:25:43;;;;;;;21.35;15.52;;;4.60;99.90;;;;;;5076152;28;20203;-67
2022/04/11 06:28:10;;;;;;;21.77;16.77;;;4.60;99.90;;;;;;5074912;28;20203;-67
2022/04/11 06:30:37;;;;;;;21.98;17.90;;;4.60;99.90;;;;;;5075947;28;20237;-67
2022/04/11 06:33:05;;;;;;;21.38;17.80;;;4.60;99.90;;;;;;5075893;28;20324;-68
2022/04/11 06:35:32;;;;;;;26.02;18.73;;;4.40;99.90;;;;;;5075993;28;20199;-67
2022/04/11 06:37:59;;;;;;;24.17;18.25;;;4.30;99.90;;;;;;5075988;28;20199;-67
2022/04/11 06:40:26;;;;;;;24.05;17.55;;;4.40;99.90;;;;;;5075823;28;20223;-67
2022/04/11 06:42:52;;;;;;;22.60;18.15;;;4.50;99.90;;;;;;5075675;28;20198;-67
2022/04/11 06:45:19;;;;;;;22.80;18.20;;;4.60;99.90;;;;;;5075754;28;20203;-67
2022/04/11 06:47:48;;;;;;;19.05;15.75;;;4.70;99.90;;;;;;5075683;28;20205;-67
2022/04/11 06:50:16;;;;;;;23.08;18.13;;;4.90;99.90;;;;;;5075550;28;20203;-67
2022/04/11 06:52:43;;;;;;;22.17;18.60;;;5.00;99.90;;;;;;5075749;28;20234;-67
2022/04/11 06:55:10;;;;;;;21.58;17.70;;;5.00;99.90;;;;;;5075560;28;20629;-67
2022/04/11 06:57:37;;;;;;;20.25;15.93;;;5.10;99.90;;;;;;5075416;28;20203;-67
2022/04/11 07:00:04;;;;;;;19.40;16.48;;;5.20;99.90;;;;;;5075542;28;20233;-67
2022/04/11 07:02:31;;;;;;;22.30;17.08;;;5.30;99.90;;;;;;5075555;28;20229;-67
2022/04/11 07:04:58;;;;;;;21.25;15.63;;;5.50;99.90;;;;;;5075247;28;20209;-67
2022/04/11 07:07:26;;;;;;;18.02;15.15;;;5.70;99.90;;;;;;5075414;28;20203;-68
2022/04/11 07:09:53;;;;;;;16.30;14.50;;;5.80;99.90;;;;;;5075406;28;20289;-67
2022/04/11 07:12:20;;;;;;;17.98;13.70;;;5.90;99.90;;;;;;5075558;28;20223;-68
2022/04/11 07:14:46;;;;;;;14.30;11.95;;;6.00;99.90;;;;;;5075054;28;20317;-67
2022/04/11 07:17:13;;;;;;;13.65;10.90;;;6.20;99.90;;;;;;5075092;28;20209;-67
2022/04/11 07:19:40;;;;;;;11.43;10.07;;;6.30;99.90;;;;;;5075188;28;20209;-67
2022/04/11 07:22:07;;;;;;;13.27;9.70;;;6.40;99.90;;;;;;5075000;28;20233;-67
2022/04/11 07:24:37;;;;;;;9.77;8.10;;;6.60;99.90;;;;;;5074951;28;20237;-68
2022/04/11 07:27:06;;;;;;;10.77;9.45;;;6.80;99.90;;;;;;5075042;28;20294;-67
2022/04/11 07:29:33;;;;;;;11.20;9.82;;;6.90;99.90;;;;;;5074608;28;20250;-67
2022/04/11 07:32:00;;;;;;;11.50;10.00;;;6.90;99.90;;;;;;5074937;28;20583;-67
2022/04/11 07:34:27;;;;;;;12.45;9.90;;;7.10;99.90;;;;;;5074584;28;20219;-67
2022/04/11 07:36:54;;;;;;;14.10;10.05;;;7.10;99.90;;;;;;5074571;28;20675;-67
2022/04/11 07:39:23;;;;;;;9.50;8.60;;;7.10;99.90;;;;;;5074431;28;20293;-67
2022/04/11 07:41:53;;;;;;;12.18;8.90;;;7.30;99.90;;;;;;5074647;28;20621;-67
2022/04/11 07:44:20;;;;;;;11.82;9.40;;;7.40;99.90;;;;;;5074383;28;20290;-67
2022/04/11 07:46:46;;;;;;;10.85;9.80;;;7.60;99.90;;;;;;5074590;28;20202;-67
2022/04/11 07:49:13;;;;;;;12.00;9.93;;;7.60;99.90;;;;;;5074504;28;20248;-68
2022/04/11 07:51:40;;;;;;;11.80;10.25;;;7.80;99.90;;;;;;5074709;28;20229;-67
2022/04/11 07:54:07;;;;;;;9.77;8.43;;;7.90;99.90;;;;;;5074189;28;20226;-67
2022/04/11 07:56:34;;;;;;;9.57;7.72;;;8.10;99.90;;;;;;5074409;28;20209;-67
2022/04/11 07:59:02;;;;;;;7.93;7.13;;;8.30;99.90;;;;;;5074258;28;20731;-68
2022/04/11 08:01:29;;;;;;;8.73;7.78;;;8.30;99.90;;;;;;5074034;28;20314;-67
2022/04/11 08:03:56;;;;;;;7.47;6.72;;;8.40;99.90;;;;;;5074129;28;20241;-68
2022/04/11 08:06:23;;;;;;;8.40;7.35;;;8.50;99.90;;;;;;5074223;28;20199;-67
2022/04/11 08:08:49;;;;;;;7.45;6.72;;;8.60;99.00;;;;;;5074173;28;20217;-68
2022/04/11 08:11:18;;;;;;;10.23;7.88;;;8.70;99.90;;;;;;5073912;28;20219;-67
2022/04/11 08:13:46;;;;;;;9.45;7.00;;;8.90;99.70;;;;;;5073879;28;20222;-68
2022/04/11 08:16:14;;;;;;;9.00;7.90;;;9.00;98.70;;;;;;5074008;28;20203;-68
2022/04/11 08:18:41;;;;;;;8.95;7.80;;;9.10;98.10;;;;;;5073978;28;20297;-67
2022/04/11 08:21:07;;;;;;;7.25;6.55;;;9.10;98.10;;;;;;5073682;28;20887;-68
2022/04/11 08:23:34;;;;;;;8.20;7.07;;;9.30;98.50;;;;;;5073588;28;20195;-67
2022/04/11 08:26:01;;;;;;;14.32;9.07;;;9.30;97.40;;;;;;5073967;28;20211;-67
2022/04/11 08:28:28;;;;;;;6.68;5.97;;;9.30;97.10;;;;;;5073850;28;20226;-67
2022/04/11 08:30:55;;;;;;;7.25;6.55;;;9.40;96.10;;;;;;5073604;28;20599;-67
2022/04/11 08:33:23;;;;;;;8.77;6.95;;;9.50;96.90;;;;;;5073311;28;20700;-68
2022/04/11 08:35:50;;;;;;;6.50;5.90;;;9.60;95.80;;;;;;5073590;28;20202;-67
2022/04/11 08:38:17;;;;;;;7.07;6.38;;;9.80;94.90;;;;;;5073785;28;20293;-68
2022/04/11 08:40:43;;;;;;;7.03;6.40;;;9.90;94.20;;;;;;5073596;28;20219;-68
2022/04/11 08:43:13;;;;;;;6.68;5.93;;;10.00;93.30;;;;;;5073582;28;20576;-67
2022/04/11 08:45:40;;;;;;;7.82;6.15;;;10.20;94.20;;;;;;5076177;28;20199;-68
2022/04/11 08:48:07;;;;;;;7.25;5.60;;;10.60;92.80;;;;;;5073445;28;20213;-67
2022/04/11 08:50:35;;;;;;;6.95;5.47;;;11.00;91.90;;;;;;5072704;28;20305;-68
2022/04/11 08:53:02;;;;;;;6.90;5.82;;;11.40;92.90;;;;;;5073500;28;20293;-68
2022/04/11 08:55:29;;;;;;;7.50;6.30;;;11.60;91.60;;;;;;5074568;28;20202;-68
2022/04/11 08:57:58;;;;;;;6.72;6.03;;;11.70;91.10;;;;;;5073887;28;20289;-68
2022/04/11 09:00:25;;;;;;;6.20;5.60;;;11.90;88.90;;;;;;5073705;28;20223;-68
2022/04/11 09:02:52;;;;;;;5.95;5.35;;;12.10;89.10;;;;;;5073674;28;20199;-67
2022/04/11 09:05:23;;;;;;;8.05;7.10;;;12.20;87.90;;;;;;5073222;28;20660;-67
2022/04/11 09:07:52;;;;;;;5.75;5.18;;;12.50;86.80;;;;;;5073472;28;20694;-68
2022/04/11 09:10:21;;;;;;;6.60;5.50;;;12.40;84.00;;;;;;5073411;28;20260;-68
2022/04/11 09:12:49;;;;;;;5.80;5.30;;;12.50;84.40;;;;;;5073431;28;20209;-68
2022/04/11 09:15:17;;;;;;;5.30;4.70;;;12.70;82.90;;;;;;5073197;28;20232;-68
2022/04/11 09:17:44;;;;;;;5.72;5.05;;;13.10;83.90;;;;;;5073392;28;20210;-68
2022/04/11 09:20:13;;;;;;;5.22;4.72;;;13.20;79.40;;;;;;5073266;28;20571;-67
2022/04/11 09:22:40;;;;;;;5.53;5.05;;;13.40;78.70;;;;;;5073325;28;20620;-68
2022/04/11 09:25:10;;;;;;;5.63;5.13;;;13.80;75.90;;;;;;5073161;28;20556;-68
2022/04/11 09:27:37;;;;;;;5.40;4.90;;;14.20;75.60;;;;;;5073115;28;20742;-68
2022/04/11 09:30:22;;;;;;;7.40;4.80;;;15.00;71.40;;;;;;5073023;28;20211;-69
2022/04/11 09:33:03;;;;;;;4.03;3.72;;;16.30;67.70;;;;;;5073332;28;20209;-68
2022/04/11 09:35:32;;;;;;;6.05;4.20;;;16.70;58.90;;;;;;5073103;28;20236;-68
2022/04/11 09:38:11;;;;;;;5.05;4.55;;;17.30;58.30;;;;;;5073200;28;20203;-68
2022/04/11 09:40:41;;;;;;;5.33;4.90;;;17.60;54.50;;;;;;5073285;28;20223;-69
2022/04/11 09:43:09;;;;;;;5.27;4.77;;;18.60;53.40;;;;;;5073089;28;20435;-69
2022/04/11 09:45:41;;;;;;;4.67;4.27;;;20.40;50.50;;;;;;5073077;28;20463;-69
2022/04/11 09:48:09;;;;;;;4.30;4.00;;;22.20;48.10;;;;;;5072845;28;20507;-68
2022/04/11 09:50:37;;;;;;;4.80;4.50;;;23.40;44.90;;;;;;5072916;28;20829;-68
2022/04/11 09:53:08;;;;;;;4.27;3.87;;;25.00;43.40;;;;;;5072931;28;20543;-70
2022/04/11 09:55:35;;;;;;;4.37;4.00;;;26.20;39.00;;;;;;5072918;28;20485;-69
2022/04/11 09:58:05;;;;;;;4.60;4.20;;;25.90;37.00;;;;;;5072948;28;20473;-69
2022/04/11 10:00:33;;;;;;;4.30;4.00;;;26.20;35.80;;;;;;5072846;28;20836;-69
2022/04/11 10:03:00;;;;;;;4.23;3.83;;;26.60;34.80;;;;;;5075113;28;20441;-69
2022/04/11 10:05:27;;;;;;;4.70;4.00;;;26.50;34.00;;;;;;5076421;28;21012;-69
2022/04/11 10:07:55;;;;;;;4.03;3.73;;;27.20;33.70;;;;;;5076544;28;20449;-69
2022/04/11 10:10:23;;;;;;;3.63;3.43;;;27.50;33.30;;;;;;5076373;28;20465;-69
2022/04/11 10:12:52;;;;;;;4.10;3.80;;;27.40;33.20;;;;;;5076145;28;20940;-69
2022/04/11 10:15:20;;;;;;;3.70;3.50;;;27.20;31.20;;;;;;5076139;28;20480;-69
2022/04/11 10:17:48;;;;;;;4.37;3.97;;;26.90;31.60;;;;;;5076173;28;20919;-69
2022/04/11 10:20:24;;;;;;;3.60;3.30;;;26.60;30.00;;;;;;5076246;28;20803;-67
2022/04/11 10:22:56;;;;;;;3.77;3.47;;;27.10;31.70;;;;;;5076384;28;20488;-67
2022/04/11 10:25:24;;;;;;;3.43;3.20;;;27.50;32.40;;;;;;5075947;28;20441;-67
2022/04/11 10:28:15;;;;;;;3.20;3.00;;;27.90;29.40;;;;;;5076799;28;20806;-67
2022/04/11 10:30:44;;;;;;;3.40;3.13;;;27.00;29.10;;;;;;5076139;28;20477;-68
2022/04/11 10:33:11;;;;;;;3.37;3.07;;;26.80;30.00;;;;;;5075666;28;20447;-68
2022/04/11 10:35:42;;;;;;;3.77;3.47;;;27.50;30.30;;;;;;5075907;28;20473;-67
2022/04/11 10:38:10;;;;;;;3.40;3.20;;;27.40;29.10;;;;;;5075808;28;20458;-67
2022/04/11 10:40:38;;;;;;;3.20;3.00;;;27.00;29.50;;;;;;5075784;28;20464;-67
2022/04/11 10:43:18;;;;;;;3.70;3.40;;;27.10;30.30;;;;;;5075816;28;20449;-68
2022/04/11 10:45:57;;;;;;;3.20;3.00;;;26.60;30.00;;;;;;5075836;28;20795;-67
2022/04/11 10:48:58;;;;;;;3.30;3.07;;;27.00;30.60;;;;;;5075837;28;20923;-67
2022/04/11 10:51:25;;;;;;;3.30;3.10;;;27.20;29.70;;;;;;5075782;28;20460;-67
2022/04/11 10:54:17;;;;;;;3.67;3.47;;;27.00;29.70;;;;;;5075184;28;20932;-67
2022/04/11 10:56:51;;;;;;;3.50;3.30;;;26.50;29.90;;;;;;5067193;28;20461;-67
2022/04/11 10:59:26;;;;;;;3.80;3.50;;;26.40;30.60;;;;;;5075441;28;20922;-67
2022/04/11 11:01:59;;;;;;;3.90;3.60;;;25.90;32.00;;;;;;5075580;28;20548;-67
2022/04/11 11:04:32;;;;;;;4.23;3.87;;;25.40;31.80;;;;;;5075100;28;20532;-67
2022/04/11 11:07:24;;;;;;;4.37;3.93;;;25.40;32.90;;;;;;5075411;28;20441;-67
2022/04/11 11:09:56;;;;;;;5.03;4.63;;;26.00;32.80;;;;;;5075205;28;20437;-68
2022/04/11 11:12:23;;;;;;;4.00;3.80;;;26.20;32.20;;;;;;5075432;28;20433;-67
2022/04/11 11:14:50;;;;;;;4.10;3.80;;;26.20;30.90;;;;;;5074403;28;20475;-67
2022/04/11 11:17:18;;;;;;;3.90;3.53;;;26.70;31.00;;;;;;5075106;28;20449;-67
2022/04/11 11:20:04;;;;;;;4.07;3.67;;;26.40;29.70;;;;;;5075587;28;20447;-67
2022/04/11 11:22:33;;;;;;;3.40;3.20;;;26.50;31.70;;;;;;5075238;28;20434;-67
2022/04/11 11:25:19;;;;;;;5.93;4.23;;;26.90;31.60;;;;;;5074903;28;20437;-67
2022/04/11 11:27:49;;;;;;;4.07;3.47;;;26.20;30.00;;;;;;5074951;28;20542;-67
2022/04/11 11:30:17;;;;;;;3.60;3.40;;;26.50;30.70;;;;;;5074494;28;20520;-67
2022/04/11 11:32:45;;;;;;;3.53;3.27;;;26.50;30.40;;;;;;5075016;28;20527;-67
2022/04/11 11:35:12;;;;;;;3.70;3.37;;;26.00;30.80;;;;;;5074627;28;20855;-67
2022/04/11 11:37:39;;;;;;;3.60;3.37;;;25.80;31.10;;;;;;5074652;28;20448;-67
2022/04/11 11:40:09;;;;;;;3.97;3.67;;;25.30;31.10;;;;;;5074651;28;20441;-67
2022/04/11 11:42:37;;;;;;;3.70;3.50;;;24.40;31.70;;;;;;5074939;28;20486;-66
2022/04/11 11:45:05;;;;;;;3.70;3.40;;;23.50;33.30;;;;;;5074274;28;20443;-66
2022/04/11 11:47:32;;;;;;;3.70;3.40;;;22.90;34.60;;;;;;5074564;28;20438;-67
2022/04/11 11:50:06;;;;;;;4.77;4.37;;;22.20;34.70;;;;;;5074366;28;20535;-66
2022/04/11 11:52:34;;;;;;;4.00;3.70;;;21.60;36.10;;;;;;5074616;28;20429;-66
2022/04/11 11:55:03;;;;;;;4.13;3.83;;;21.10;37.00;;;;;;5073955;28;20487;-66
2022/04/11 11:57:31;;;;;;;3.43;3.17;;;20.60;37.50;;;;;;5074446;28;20440;-67
2022/04/11 12:00:01;;;;;;;4.00;3.60;;;20.10;38.20;;;;;;5074302;28;20533;-66
2022/04/11 12:05:24;;;;;;;4.20;3.80;;;19.60;39.00;;;;;;5074087;28;20465;-67
2022/04/11 12:07:52;;;;;;;4.10;3.73;;;19.50;38.60;;;;;;5074238;28;20541;-66
2022/04/11 12:10:19;;;;;;;3.70;3.40;;;19.20;38.50;;;;;;5074077;28;20462;-66
2022/04/11 12:12:47;;;;;;;4.80;4.40;;;19.10;39.20;;;;;;5073895;28;20527;-66
2022/04/11 12:15:15;;;;;;;4.15;3.85;;;19.00;40.60;;;;;;5073720;28;20988;-66
2022/04/11 12:17:44;;;;;;;4.10;3.70;;;18.90;39.00;;;;;;5073972;28;20207;-66
2022/04/11 12:20:14;;;;;;;4.30;3.90;;;18.80;40.20;;;;;;5073647;28;20928;-66
2022/04/11 12:23:00;;;;;;;4.27;3.77;;;18.80;40.60;;;;;;5074055;28;20520;-66
2022/04/11 12:25:28;;;;;;;5.50;3.67;;;18.90;40.60;;;;;;5072803;28;20452;-66
2022/04/11 12:28:13;;;;;;;3.75;3.20;;;18.90;40.40;;;;;;5073847;28;20447;-66
2022/04/11 12:30:44;;;;;;;4.00;3.70;;;18.60;39.30;;;;;;5073494;28;20234;-66
2022/04/11 12:33:34;;;;;;;4.20;3.85;;;18.50;39.70;;;;;;5073540;28;20203;-66
2022/04/11 12:36:08;;;;;;;4.13;3.78;;;18.40;40.50;;;;;;5073961;28;20313;-66
2022/04/11 12:38:48;;;;;;;4.05;3.65;;;18.50;40.50;;;;;;5073718;28;20203;-66
2022/04/11 12:41:32;;;;;;;4.33;3.80;;;18.60;41.20;;;;;;5073802;28;20309;-66
2022/04/11 12:44:01;;;;;;;3.80;3.50;;;18.70;40.50;;;;;;5073336;28;20935;-66
2022/04/11 12:46:28;;;;;;;4.33;3.93;;;18.50;39.90;;;;;;5073726;28;20206;-66
2022/04/11 12:48:55;;;;;;;3.83;3.25;;;18.60;39.90;;;;;;5073600;28;20448;-66
2022/04/11 12:51:22;;;;;;;3.93;3.63;;;18.60;40.40;;;;;;5073298;28;20317;-66